sensor_id;sensor_type;location;lat;lon;timestamp;temperature;humidity
22950;DHT22;11641;51.018;4.474;2022-07-01T00:01:11;13.90;99.90
22950;DHT22;11641;51.018;4.474;2022-07-01T00:03:37;13.90;99.90
22950;DHT22;11641;51.018;4.474;2022-07-01T00:06:02;13.90;99.90
22950;DHT22;11641;51.018;4.474;2022-07-01T00:08:28;13.80;99.90
22950;DHT22;11641;51.018;4.474;2022-07-01T00:10:54;13.80;99.90
22950;DHT22;11641;51.018;4.474;2022-07-01T00:13:21;13.90;99.90
22950;DHT22;11641;51.018;4.474;2022-07-01T00:15:47;13.90;99.90
22950;DHT22;11641;51.018;4.474;2022-07-01T00:18:12;13.80;99.90
22950;DHT22;11641;51.018;4.474;2022-07-01T00:20:38;13.90;99.90
22950;DHT22;11641;51.018;4.474;2022-07-01T00:23:05;13.80;99.90
22950;DHT22;11641;51.018;4.474;2022-07-01T00:25:33;13.80;99.90
22950;DHT22;11641;51.018;4.474;2022-07-01T00:27:59;13.80;99.90
22950;DHT22;11641;51.018;4.474;2022-07-01T00:30:24;13.80;99.90
22950;DHT22;11641;51.018;4.474;2022-07-01T00:32:50;13.80;99.90
22950;DHT22;11641;51.018;4.474;2022-07-01T00:35:21;13.80;99.90
22950;DHT22;11641;51.018;4.474;2022-07-01T00:37:47;13.70;99.90
22950;DHT22;11641;51.018;4.474;2022-07-01T00:40:13;13.70;99.90
22950;DHT22;11641;51.018;4.474;2022-07-01T00:42:44;13.60;99.90
22950;DHT22;11641;51.018;4.474;2022-07-01T00:45:11;13.70;99.90
22950;DHT22;11641;51.018;4.474;2022-07-01T00:47:37;13.70;99.90
22950;DHT22;11641;51.018;4.474;2022-07-01T00:50:07;13.70;99.90
22950;DHT22;11641;51.018;4.474;2022-07-01T00:52:34;13.70;99.90
22950;DHT22;11641;51.018;4.474;2022-07-01T00:55:03;13.70;99.90
22950;DHT22;11641;51.018;4.474;2022-07-01T00:57:33;13.60;99.90
22950;DHT22;11641;51.018;4.474;2022-07-01T01:00:00;13.50;99.90
22950;DHT22;11641;51.018;4.474;2022-07-01T01:02:26;13.50;99.90
22950;DHT22;11641;51.018;4.474;2022-07-01T01:04:52;13.60;99.90
22950;DHT22;11641;51.018;4.474;2022-07-01T01:07:17;13.60;99.90
22950;DHT22;11641;51.018;4.474;2022-07-01T01:09:44;13.60;99.90
22950;DHT22;11641;51.018;4.474;2022-07-01T01:12:11;13.60;99.90
22950;DHT22;11641;51.018;4.474;2022-07-01T01:14:47;13.60;99.90
22950;DHT22;11641;51.018;4.474;2022-07-01T01:17:15;13.60;99.90
22950;DHT22;11641;51.018;4.474;2022-07-01T01:19:42;13.60;99.90
22950;DHT22;11641;51.018;4.474;2022-07-01T01:22:09;13.60;99.90
22950;DHT22;11641;51.018;4.474;2022-07-01T01:24:38;13.70;99.90
22950;DHT22;11641;51.018;4.474;2022-07-01T01:27:04;13.70;99.90
22950;DHT22;11641;51.018;4.474;2022-07-01T01:29:30;13.70;99.90
22950;DHT22;11641;51.018;4.474;2022-07-01T01:31:56;13.80;99.90
22950;DHT22;11641;51.018;4.474;2022-07-01T01:34:22;13.90;99.90
22950;DHT22;11641;51.018;4.474;2022-07-01T01:36:48;14.00;99.90
22950;DHT22;11641;51.018;4.474;2022-07-01T01:39:14;14.00;99.90
22950;DHT22;11641;51.018;4.474;2022-07-01T01:41:47;14.00;99.90
22950;DHT22;11641;51.018;4.474;2022-07-01T01:44:13;14.10;99.90
22950;DHT22;11641;51.018;4.474;2022-07-01T01:46:39;14.10;99.90
22950;DHT22;11641;51.018;4.474;2022-07-01T01:49:06;14.00;99.90
22950;DHT22;11641;51.018;4.474;2022-07-01T01:51:32;14.00;99.90
22950;DHT22;11641;51.018;4.474;2022-07-01T01:54:01;14.00;99.90
22950;DHT22;11641;51.018;4.474;2022-07-01T01:56:27;14.00;99.90
22950;DHT22;11641;51.018;4.474;2022-07-01T01:58:55;14.00;99.90
22950;DHT22;11641;51.018;4.474;2022-07-01T02:01:21;13.90;99.90
22950;DHT22;11641;51.018;4.474;2022-07-01T02:03:51;13.90;99.90
22950;DHT22;11641;51.018;4.474;2022-07-01T02:06:18;13.90;99.90
22950;DHT22;11641;51.018;4.474;2022-07-01T02:08:45;13.90;99.90
22950;DHT22;11641;51.018;4.474;2022-07-01T02:11:12;13.80;99.90
22950;DHT22;11641;51.018;4.474;2022-07-01T02:13:38;13.80;99.90
22950;DHT22;11641;51.018;4.474;2022-07-01T02:16:05;13.70;99.90
22950;DHT22;11641;51.018;4.474;2022-07-01T02:18:33;13.70;99.90
22950;DHT22;11641;51.018;4.474;2022-07-01T02:20:59;13.70;99.90
22950;DHT22;11641;51.018;4.474;2022-07-01T02:23:25;13.60;99.90
22950;DHT22;11641;51.018;4.474;2022-07-01T02:25:52;13.70;99.90
22950;DHT22;11641;51.018;4.474;2022-07-01T02:28:19;13.80;99.90
22950;DHT22;11641;51.018;4.474;2022-07-01T02:30:44;13.70;99.90
22950;DHT22;11641;51.018;4.474;2022-07-01T02:33:13;13.70;99.90
22950;DHT22;11641;51.018;4.474;2022-07-01T02:35:40;13.60;99.90
22950;DHT22;11641;51.018;4.474;2022-07-01T02:38:07;13.70;99.90
22950;DHT22;11641;51.018;4.474;2022-07-01T02:40:34;13.60;99.90
22950;DHT22;11641;51.018;4.474;2022-07-01T02:43:06;13.40;99.90
22950;DHT22;11641;51.018;4.474;2022-07-01T02:45:31;13.40;99.90
22950;DHT22;11641;51.018;4.474;2022-07-01T02:47:57;13.40;99.90
22950;DHT22;11641;51.018;4.474;2022-07-01T02:50:23;13.40;99.90
22950;DHT22;11641;51.018;4.474;2022-07-01T02:52:48;13.40;99.90
22950;DHT22;11641;51.018;4.474;2022-07-01T02:55:15;13.40;99.90
22950;DHT22;11641;51.018;4.474;2022-07-01T02:57:43;13.30;99.90
22950;DHT22;11641;51.018;4.474;2022-07-01T03:00:14;13.30;99.90
22950;DHT22;11641;51.018;4.474;2022-07-01T03:02:40;13.30;99.90
22950;DHT22;11641;51.018;4.474;2022-07-01T03:05:07;13.30;99.90
22950;DHT22;11641;51.018;4.474;2022-07-01T03:07:33;13.40;99.90
22950;DHT22;11641;51.018;4.474;2022-07-01T03:10:03;13.40;99.90
22950;DHT22;11641;51.018;4.474;2022-07-01T03:12:32;13.40;99.90
22950;DHT22;11641;51.018;4.474;2022-07-01T03:17:34;13.40;99.90
22950;DHT22;11641;51.018;4.474;2022-07-01T03:20:02;13.40;99.90
22950;DHT22;11641;51.018;4.474;2022-07-01T03:22:29;13.40;99.90
22950;DHT22;11641;51.018;4.474;2022-07-01T03:25:01;13.40;99.90
22950;DHT22;11641;51.018;4.474;2022-07-01T03:27:30;13.30;99.90
22950;DHT22;11641;51.018;4.474;2022-07-01T03:29:56;13.30;99.90
22950;DHT22;11641;51.018;4.474;2022-07-01T03:32:22;13.30;99.90
22950;DHT22;11641;51.018;4.474;2022-07-01T03:34:50;13.30;99.90
22950;DHT22;11641;51.018;4.474;2022-07-01T03:37:18;13.30;99.90
22950;DHT22;11641;51.018;4.474;2022-07-01T03:39:45;13.30;99.90
22950;DHT22;11641;51.018;4.474;2022-07-01T03:42:12;13.30;99.90
22950;DHT22;11641;51.018;4.474;2022-07-01T03:44:51;13.30;99.90
22950;DHT22;11641;51.018;4.474;2022-07-01T03:47:16;13.30;99.90
22950;DHT22;11641;51.018;4.474;2022-07-01T03:49:42;13.30;99.90
22950;DHT22;11641;51.018;4.474;2022-07-01T03:52:10;13.40;99.90
22950;DHT22;11641;51.018;4.474;2022-07-01T03:54:41;13.40;99.90
22950;DHT22;11641;51.018;4.474;2022-07-01T03:57:08;13.50;99.90
22950;DHT22;11641;51.018;4.474;2022-07-01T03:59:36;13.50;99.90
22950;DHT22;11641;51.018;4.474;2022-07-01T04:02:04;13.60;99.90
22950;DHT22;11641;51.018;4.474;2022-07-01T04:04:30;13.60;99.90
22950;DHT22;11641;51.018;4.474;2022-07-01T04:07:04;13.60;99.90
22950;DHT22;11641;51.018;4.474;2022-07-01T04:09:33;13.60;99.90
22950;DHT22;11641;51.018;4.474;2022-07-01T04:11:59;13.50;99.90
22950;DHT22;11641;51.018;4.474;2022-07-01T04:14:25;13.50;99.90
22950;DHT22;11641;51.018;4.474;2022-07-01T04:16:51;13.50;99.90
22950;DHT22;11641;51.018;4.474;2022-07-01T04:19:17;13.40;99.90
22950;DHT22;11641;51.018;4.474;2022-07-01T04:21:44;13.30;99.90
22950;DHT22;11641;51.018;4.474;2022-07-01T04:24:28;13.30;99.90
22950;DHT22;11641;51.018;4.474;2022-07-01T04:26:58;13.30;99.90
22950;DHT22;11641;51.018;4.474;2022-07-01T04:29:26;13.40;99.90
22950;DHT22;11641;51.018;4.474;2022-07-01T04:31:55;13.30;99.90
22950;DHT22;11641;51.018;4.474;2022-07-01T04:34:22;13.30;99.90
22950;DHT22;11641;51.018;4.474;2022-07-01T04:36:47;13.30;99.90
22950;DHT22;11641;51.018;4.474;2022-07-01T04:39:13;13.30;99.90
22950;DHT22;11641;51.018;4.474;2022-07-01T04:41:39;13.40;99.90
22950;DHT22;11641;51.018;4.474;2022-07-01T04:44:23;13.40;99.90
22950;DHT22;11641;51.018;4.474;2022-07-01T04:46:49;13.30;99.90
22950;DHT22;11641;51.018;4.474;2022-07-01T04:49:18;13.20;99.90
22950;DHT22;11641;51.018;4.474;2022-07-01T04:51:43;13.30;99.90
22950;DHT22;11641;51.018;4.474;2022-07-01T04:54:12;13.20;99.90
22950;DHT22;11641;51.018;4.474;2022-07-01T04:56:38;13.20;99.90
22950;DHT22;11641;51.018;4.474;2022-07-01T04:59:05;13.20;99.90
22950;DHT22;11641;51.018;4.474;2022-07-01T05:01:31;13.40;99.90
22950;DHT22;11641;51.018;4.474;2022-07-01T05:03:58;13.30;99.90
22950;DHT22;11641;51.018;4.474;2022-07-01T05:06:24;13.40;99.90
22950;DHT22;11641;51.018;4.474;2022-07-01T05:08:50;13.40;99.90
22950;DHT22;11641;51.018;4.474;2022-07-01T05:11:15;13.50;99.90
22950;DHT22;11641;51.018;4.474;2022-07-01T05:13:41;13.50;99.90
22950;DHT22;11641;51.018;4.474;2022-07-01T05:16:07;13.50;99.90
22950;DHT22;11641;51.018;4.474;2022-07-01T05:18:37;13.40;99.90
22950;DHT22;11641;51.018;4.474;2022-07-01T05:21:21;13.40;99.90
22950;DHT22;11641;51.018;4.474;2022-07-01T05:24:11;13.40;99.90
22950;DHT22;11641;51.018;4.474;2022-07-01T05:26:37;13.50;99.90
22950;DHT22;11641;51.018;4.474;2022-07-01T05:29:03;13.50;99.90
22950;DHT22;11641;51.018;4.474;2022-07-01T05:31:30;13.40;99.90
22950;DHT22;11641;51.018;4.474;2022-07-01T05:34:00;13.40;99.90
22950;DHT22;11641;51.018;4.474;2022-07-01T05:36:28;13.40;99.90
22950;DHT22;11641;51.018;4.474;2022-07-01T05:38:54;13.40;99.90
22950;DHT22;11641;51.018;4.474;2022-07-01T05:41:22;13.40;99.90
22950;DHT22;11641;51.018;4.474;2022-07-01T05:43:51;13.50;99.90
22950;DHT22;11641;51.018;4.474;2022-07-01T05:46:16;13.50;99.90
22950;DHT22;11641;51.018;4.474;2022-07-01T05:48:44;13.50;99.90
22950;DHT22;11641;51.018;4.474;2022-07-01T05:51:13;13.60;99.90
22950;DHT22;11641;51.018;4.474;2022-07-01T05:53:39;13.70;99.90
22950;DHT22;11641;51.018;4.474;2022-07-01T05:56:05;13.60;99.90
22950;DHT22;11641;51.018;4.474;2022-07-01T05:58:31;13.70;99.90
22950;DHT22;11641;51.018;4.474;2022-07-01T06:00:56;13.70;99.90
22950;DHT22;11641;51.018;4.474;2022-07-01T06:03:24;13.70;99.90
22950;DHT22;11641;51.018;4.474;2022-07-01T06:05:51;13.80;99.90
22950;DHT22;11641;51.018;4.474;2022-07-01T06:08:18;13.80;99.90
22950;DHT22;11641;51.018;4.474;2022-07-01T06:10:43;13.80;99.90
22950;DHT22;11641;51.018;4.474;2022-07-01T06:13:16;13.90;99.90
22950;DHT22;11641;51.018;4.474;2022-07-01T06:15:41;13.90;99.90
22950;DHT22;11641;51.018;4.474;2022-07-01T06:18:08;14.10;99.90
22950;DHT22;11641;51.018;4.474;2022-07-01T06:20:34;14.10;99.90
22950;DHT22;11641;51.018;4.474;2022-07-01T06:23:01;14.20;99.90
22950;DHT22;11641;51.018;4.474;2022-07-01T06:25:27;14.20;99.90
22950;DHT22;11641;51.018;4.474;2022-07-01T06:27:56;14.20;99.90
22950;DHT22;11641;51.018;4.474;2022-07-01T06:30:24;14.20;99.90
22950;DHT22;11641;51.018;4.474;2022-07-01T06:32:49;14.30;99.90
22950;DHT22;11641;51.018;4.474;2022-07-01T06:35:15;14.50;99.90
22950;DHT22;11641;51.018;4.474;2022-07-01T06:37:43;14.50;99.90
22950;DHT22;11641;51.018;4.474;2022-07-01T06:40:09;14.70;99.90
22950;DHT22;11641;51.018;4.474;2022-07-01T06:42:35;14.70;99.90
22950;DHT22;11641;51.018;4.474;2022-07-01T06:45:04;14.70;99.90
22950;DHT22;11641;51.018;4.474;2022-07-01T06:47:32;14.90;99.90
22950;DHT22;11641;51.018;4.474;2022-07-01T06:49:59;14.90;99.90
22950;DHT22;11641;51.018;4.474;2022-07-01T06:52:26;15.00;99.90
22950;DHT22;11641;51.018;4.474;2022-07-01T06:54:54;15.00;99.90
22950;DHT22;11641;51.018;4.474;2022-07-01T06:57:21;15.10;99.90
22950;DHT22;11641;51.018;4.474;2022-07-01T06:59:46;15.30;99.90
22950;DHT22;11641;51.018;4.474;2022-07-01T07:02:16;15.30;99.90
22950;DHT22;11641;51.018;4.474;2022-07-01T07:04:42;15.40;99.90
22950;DHT22;11641;51.018;4.474;2022-07-01T07:07:08;15.40;99.90
22950;DHT22;11641;51.018;4.474;2022-07-01T07:09:35;15.60;99.90
22950;DHT22;11641;51.018;4.474;2022-07-01T07:12:00;15.60;99.90
22950;DHT22;11641;51.018;4.474;2022-07-01T07:14:26;15.70;99.90
22950;DHT22;11641;51.018;4.474;2022-07-01T07:16:52;15.70;99.90
22950;DHT22;11641;51.018;4.474;2022-07-01T07:19:20;15.80;99.90
22950;DHT22;11641;51.018;4.474;2022-07-01T07:21:47;15.80;99.90
22950;DHT22;11641;51.018;4.474;2022-07-01T07:24:15;15.90;99.90
22950;DHT22;11641;51.018;4.474;2022-07-01T07:26:45;16.10;99.90
22950;DHT22;11641;51.018;4.474;2022-07-01T07:29:14;16.20;99.90
22950;DHT22;11641;51.018;4.474;2022-07-01T07:31:39;16.20;99.90
22950;DHT22;11641;51.018;4.474;2022-07-01T07:34:06;16.40;99.90
22950;DHT22;11641;51.018;4.474;2022-07-01T07:36:36;16.40;99.90
22950;DHT22;11641;51.018;4.474;2022-07-01T07:39:04;16.50;99.90
22950;DHT22;11641;51.018;4.474;2022-07-01T07:41:37;16.50;99.90
22950;DHT22;11641;51.018;4.474;2022-07-01T07:44:04;16.60;99.90
22950;DHT22;11641;51.018;4.474;2022-07-01T07:46:30;16.60;99.90
22950;DHT22;11641;51.018;4.474;2022-07-01T07:48:57;16.50;99.90
22950;DHT22;11641;51.018;4.474;2022-07-01T07:51:23;16.40;99.90
22950;DHT22;11641;51.018;4.474;2022-07-01T07:53:49;16.80;99.90
22950;DHT22;11641;51.018;4.474;2022-07-01T07:56:15;17.20;99.90
22950;DHT22;11641;51.018;4.474;2022-07-01T07:58:44;17.10;99.90
22950;DHT22;11641;51.018;4.474;2022-07-01T08:01:12;17.10;99.90
22950;DHT22;11641;51.018;4.474;2022-07-01T08:03:39;17.00;99.90
22950;DHT22;11641;51.018;4.474;2022-07-01T08:06:04;17.10;99.90
22950;DHT22;11641;51.018;4.474;2022-07-01T08:08:33;17.00;99.90
22950;DHT22;11641;51.018;4.474;2022-07-01T08:10:59;17.30;99.90
22950;DHT22;11641;51.018;4.474;2022-07-01T08:13:30;17.50;99.90
22950;DHT22;11641;51.018;4.474;2022-07-01T08:15:57;17.40;99.90
22950;DHT22;11641;51.018;4.474;2022-07-01T08:18:23;17.90;99.90
22950;DHT22;11641;51.018;4.474;2022-07-01T08:20:49;18.10;99.90
22950;DHT22;11641;51.018;4.474;2022-07-01T08:23:21;18.20;99.90
22950;DHT22;11641;51.018;4.474;2022-07-01T08:25:50;18.20;99.90
22950;DHT22;11641;51.018;4.474;2022-07-01T08:28:17;18.20;99.90
22950;DHT22;11641;51.018;4.474;2022-07-01T08:30:43;18.10;99.90
22950;DHT22;11641;51.018;4.474;2022-07-01T08:33:12;18.10;99.90
22950;DHT22;11641;51.018;4.474;2022-07-01T08:35:39;18.60;99.90
22950;DHT22;11641;51.018;4.474;2022-07-01T08:38:05;18.90;99.90
22950;DHT22;11641;51.018;4.474;2022-07-01T08:40:31;19.00;99.90
22950;DHT22;11641;51.018;4.474;2022-07-01T08:43:00;19.00;99.90
22950;DHT22;11641;51.018;4.474;2022-07-01T08:45:27;18.80;99.90
22950;DHT22;11641;51.018;4.474;2022-07-01T08:47:58;19.10;99.90
22950;DHT22;11641;51.018;4.474;2022-07-01T08:50:28;19.30;99.90
22950;DHT22;11641;51.018;4.474;2022-07-01T08:52:54;19.60;99.90
22950;DHT22;11641;51.018;4.474;2022-07-01T08:55:21;19.50;99.90
22950;DHT22;11641;51.018;4.474;2022-07-01T08:57:50;19.50;99.90
22950;DHT22;11641;51.018;4.474;2022-07-01T09:00:16;19.40;99.90
22950;DHT22;11641;51.018;4.474;2022-07-01T09:05:18;19.60;99.90
22950;DHT22;11641;51.018;4.474;2022-07-01T09:07:43;19.90;99.90
22950;DHT22;11641;51.018;4.474;2022-07-01T09:10:18;19.90;99.90
22950;DHT22;11641;51.018;4.474;2022-07-01T09:12:47;20.00;99.90
22950;DHT22;11641;51.018;4.474;2022-07-01T09:15:29;19.80;99.90
22950;DHT22;11641;51.018;4.474;2022-07-01T09:18:02;20.10;99.90
22950;DHT22;11641;51.018;4.474;2022-07-01T09:20:31;20.10;99.90
22950;DHT22;11641;51.018;4.474;2022-07-01T09:23:05;20.30;99.90
22950;DHT22;11641;51.018;4.474;2022-07-01T09:25:42;20.30;99.90
22950;DHT22;11641;51.018;4.474;2022-07-01T09:30:47;21.00;99.90
22950;DHT22;11641;51.018;4.474;2022-07-01T09:33:22;20.50;99.90
22950;DHT22;11641;51.018;4.474;2022-07-01T09:35:53;20.60;99.90
22950;DHT22;11641;51.018;4.474;2022-07-01T09:53:56;20.40;99.90
22950;DHT22;11641;51.018;4.474;2022-07-01T09:56:23;20.40;99.90
22950;DHT22;11641;51.018;4.474;2022-07-01T09:58:52;20.70;99.90
22950;DHT22;11641;51.018;4.474;2022-07-01T10:01:20;21.10;99.90
22950;DHT22;11641;51.018;4.474;2022-07-01T10:03:49;21.20;99.90
22950;DHT22;11641;51.018;4.474;2022-07-01T10:12:16;21.70;99.90
22950;DHT22;11641;51.018;4.474;2022-07-01T10:14:52;21.60;99.90
22950;DHT22;11641;51.018;4.474;2022-07-01T10:17:57;21.50;99.90
22950;DHT22;11641;51.018;4.474;2022-07-01T10:20:27;21.30;99.90
22950;DHT22;11641;51.018;4.474;2022-07-01T10:23:07;21.90;99.90
22950;DHT22;11641;51.018;4.474;2022-07-01T10:31:17;25.20;99.20
22950;DHT22;11641;51.018;4.474;2022-07-01T10:33:56;27.20;94.30
22950;DHT22;11641;51.018;4.474;2022-07-01T10:44:22;29.90;77.30
22950;DHT22;11641;51.018;4.474;2022-07-01T10:47:01;31.20;76.20
22950;DHT22;11641;51.018;4.474;2022-07-01T10:52:05;31.40;69.10
22950;DHT22;11641;51.018;4.474;2022-07-01T10:59:45;31.00;66.80
22950;DHT22;11641;51.018;4.474;2022-07-01T11:02:17;31.30;65.40
22950;DHT22;11641;51.018;4.474;2022-07-01T11:05:00;31.80;64.70
22950;DHT22;11641;51.018;4.474;2022-07-01T11:07:28;33.00;63.90
22950;DHT22;11641;51.018;4.474;2022-07-01T11:09:55;32.00;61.10
22950;DHT22;11641;51.018;4.474;2022-07-01T11:12:24;31.00;61.50
22950;DHT22;11641;51.018;4.474;2022-07-01T11:14:55;31.30;63.30
22950;DHT22;11641;51.018;4.474;2022-07-01T11:17:21;31.60;62.70
22950;DHT22;11641;51.018;4.474;2022-07-01T11:19:57;32.70;60.30
22950;DHT22;11641;51.018;4.474;2022-07-01T11:22:36;32.70;58.10
22950;DHT22;11641;51.018;4.474;2022-07-01T11:25:10;33.30;57.20
22950;DHT22;11641;51.018;4.474;2022-07-01T11:27:39;33.10;56.30
22950;DHT22;11641;51.018;4.474;2022-07-01T11:30:10;33.10;55.00
22950;DHT22;11641;51.018;4.474;2022-07-01T11:32:42;32.50;56.60
22950;DHT22;11641;51.018;4.474;2022-07-01T11:35:13;33.10;56.10
22950;DHT22;11641;51.018;4.474;2022-07-01T11:41:03;32.50;54.60
22950;DHT22;11641;51.018;4.474;2022-07-01T11:43:35;32.30;53.80
22950;DHT22;11641;51.018;4.474;2022-07-01T11:46:04;33.00;54.00
22950;DHT22;11641;51.018;4.474;2022-07-01T11:48:41;34.10;54.60
22950;DHT22;11641;51.018;4.474;2022-07-01T11:51:14;35.20;53.00
22950;DHT22;11641;51.018;4.474;2022-07-01T11:53:44;35.70;51.20
22950;DHT22;11641;51.018;4.474;2022-07-01T11:56:15;35.70;52.20
22950;DHT22;11641;51.018;4.474;2022-07-01T11:58:47;35.80;50.40
22950;DHT22;11641;51.018;4.474;2022-07-01T12:01:26;37.40;49.60
22950;DHT22;11641;51.018;4.474;2022-07-01T12:03:54;33.70;48.80
22950;DHT22;11641;51.018;4.474;2022-07-01T12:06:23;31.70;54.20
22950;DHT22;11641;51.018;4.474;2022-07-01T12:08:49;31.10;54.40
22950;DHT22;11641;51.018;4.474;2022-07-01T12:11:16;31.80;54.60
22950;DHT22;11641;51.018;4.474;2022-07-01T12:13:53;32.50;52.80
22950;DHT22;11641;51.018;4.474;2022-07-01T12:16:22;34.40;50.90
22950;DHT22;11641;51.018;4.474;2022-07-01T12:19:06;35.50;50.40
22950;DHT22;11641;51.018;4.474;2022-07-01T12:21:47;36.50;48.20
22950;DHT22;11641;51.018;4.474;2022-07-01T12:24:16;37.10;45.80
22950;DHT22;11641;51.018;4.474;2022-07-01T12:29:21;36.20;48.10
22950;DHT22;11641;51.018;4.474;2022-07-01T12:32:05;35.80;46.60
22950;DHT22;11641;51.018;4.474;2022-07-01T12:34:39;35.60;47.20
22950;DHT22;11641;51.018;4.474;2022-07-01T12:39:46;36.60;47.80
22950;DHT22;11641;51.018;4.474;2022-07-01T12:42:25;38.30;45.80
22950;DHT22;11641;51.018;4.474;2022-07-01T12:44:53;36.40;45.80
22950;DHT22;11641;51.018;4.474;2022-07-01T12:47:42;35.40;48.30
22950;DHT22;11641;51.018;4.474;2022-07-01T12:50:19;34.40;50.30
22950;DHT22;11641;51.018;4.474;2022-07-01T12:55:30;33.10;49.90
22950;DHT22;11641;51.018;4.474;2022-07-01T12:57:56;34.50;50.30
22950;DHT22;11641;51.018;4.474;2022-07-01T13:00:33;36.20;48.20
22950;DHT22;11641;51.018;4.474;2022-07-01T13:03:00;36.30;46.20
22950;DHT22;11641;51.018;4.474;2022-07-01T13:05:28;36.90;46.60
22950;DHT22;11641;51.018;4.474;2022-07-01T13:07:54;36.10;45.20
22950;DHT22;11641;51.018;4.474;2022-07-01T13:10:20;34.20;48.80
22950;DHT22;11641;51.018;4.474;2022-07-01T13:12:48;32.30;51.20
22950;DHT22;11641;51.018;4.474;2022-07-01T13:15:17;29.80;55.80
22950;DHT22;11641;51.018;4.474;2022-07-01T13:17:46;28.10;58.60
22950;DHT22;11641;51.018;4.474;2022-07-01T13:20:13;27.10;61.20
22950;DHT22;11641;51.018;4.474;2022-07-01T13:22:39;26.20;64.20
22950;DHT22;11641;51.018;4.474;2022-07-01T13:25:09;25.90;65.40
22950;DHT22;11641;51.018;4.474;2022-07-01T13:27:37;26.30;64.40
22950;DHT22;11641;51.018;4.474;2022-07-01T13:30:05;25.40;66.30
22950;DHT22;11641;51.018;4.474;2022-07-01T13:32:35;25.20;68.00
22950;DHT22;11641;51.018;4.474;2022-07-01T13:35:00;24.50;68.80
22950;DHT22;11641;51.018;4.474;2022-07-01T13:37:29;24.40;70.30
22950;DHT22;11641;51.018;4.474;2022-07-01T13:39:55;24.00;72.10
22950;DHT22;11641;51.018;4.474;2022-07-01T13:42:21;23.90;72.20
22950;DHT22;11641;51.018;4.474;2022-07-01T13:44:49;23.60;75.50
22950;DHT22;11641;51.018;4.474;2022-07-01T13:47:16;23.50;76.70
22950;DHT22;11641;51.018;4.474;2022-07-01T13:49:44;23.40;75.70
22950;DHT22;11641;51.018;4.474;2022-07-01T13:52:16;23.20;74.80
22950;DHT22;11641;51.018;4.474;2022-07-01T13:54:41;22.90;78.50
22950;DHT22;11641;51.018;4.474;2022-07-01T13:57:08;22.70;79.50
22950;DHT22;11641;51.018;4.474;2022-07-01T13:59:34;22.70;80.50
22950;DHT22;11641;51.018;4.474;2022-07-01T14:02:02;22.50;81.30
22950;DHT22;11641;51.018;4.474;2022-07-01T14:04:30;22.00;87.20
22950;DHT22;11641;51.018;4.474;2022-07-01T14:06:58;21.60;91.90
22950;DHT22;11641;51.018;4.474;2022-07-01T14:09:27;21.40;96.30
22950;DHT22;11641;51.018;4.474;2022-07-01T14:11:53;21.50;99.60
22950;DHT22;11641;51.018;4.474;2022-07-01T14:14:19;21.60;99.90
22950;DHT22;11641;51.018;4.474;2022-07-01T14:16:44;21.90;99.90
22950;DHT22;11641;51.018;4.474;2022-07-01T14:19:12;21.70;99.90
22950;DHT22;11641;51.018;4.474;2022-07-01T14:21:37;22.10;99.90
22950;DHT22;11641;51.018;4.474;2022-07-01T14:24:06;22.90;99.90
22950;DHT22;11641;51.018;4.474;2022-07-01T14:26:32;23.70;99.90
22950;DHT22;11641;51.018;4.474;2022-07-01T14:29:00;25.10;97.70
22950;DHT22;11641;51.018;4.474;2022-07-01T14:31:29;27.80;91.70
22950;DHT22;11641;51.018;4.474;2022-07-01T14:33:55;30.40;77.30
22950;DHT22;11641;51.018;4.474;2022-07-01T14:36:21;32.30;71.80
22950;DHT22;11641;51.018;4.474;2022-07-01T14:38:47;32.80;68.10
22950;DHT22;11641;51.018;4.474;2022-07-01T14:41:14;33.10;66.30
22950;DHT22;11641;51.018;4.474;2022-07-01T14:43:40;33.20;64.60
22950;DHT22;11641;51.018;4.474;2022-07-01T14:46:06;34.40;60.40
22950;DHT22;11641;51.018;4.474;2022-07-01T14:48:35;36.80;57.20
22950;DHT22;11641;51.018;4.474;2022-07-01T14:51:04;37.90;52.80
22950;DHT22;11641;51.018;4.474;2022-07-01T14:53:35;37.30;53.80
22950;DHT22;11641;51.018;4.474;2022-07-01T14:56:01;38.30;52.60
22950;DHT22;11641;51.018;4.474;2022-07-01T14:58:27;39.40;50.90
22950;DHT22;11641;51.018;4.474;2022-07-01T15:00:52;37.90;49.30
22950;DHT22;11641;51.018;4.474;2022-07-01T15:03:18;37.40;51.00
22950;DHT22;11641;51.018;4.474;2022-07-01T15:05:44;35.70;52.40
22950;DHT22;11641;51.018;4.474;2022-07-01T15:08:09;34.30;54.20
22950;DHT22;11641;51.018;4.474;2022-07-01T15:10:40;31.50;57.60
22950;DHT22;11641;51.018;4.474;2022-07-01T15:13:06;30.40;60.50
22950;DHT22;11641;51.018;4.474;2022-07-01T15:15:32;28.80;64.20
22950;DHT22;11641;51.018;4.474;2022-07-01T15:18:00;28.00;67.80
22950;DHT22;11641;51.018;4.474;2022-07-01T15:20:26;27.20;69.00
22950;DHT22;11641;51.018;4.474;2022-07-01T15:22:51;26.60;73.00
22950;DHT22;11641;51.018;4.474;2022-07-01T15:25:17;26.50;74.30
22950;DHT22;11641;51.018;4.474;2022-07-01T15:27:44;26.50;73.70
22950;DHT22;11641;51.018;4.474;2022-07-01T15:30:11;26.90;72.70
22950;DHT22;11641;51.018;4.474;2022-07-01T15:32:37;28.30;72.20
22950;DHT22;11641;51.018;4.474;2022-07-01T15:35:03;31.50;64.80
22950;DHT22;11641;51.018;4.474;2022-07-01T15:37:30;31.90;59.60
22950;DHT22;11641;51.018;4.474;2022-07-01T15:39:58;32.60;59.70
22950;DHT22;11641;51.018;4.474;2022-07-01T15:42:25;31.50;60.50
22950;DHT22;11641;51.018;4.474;2022-07-01T15:44:52;31.00;62.50
22950;DHT22;11641;51.018;4.474;2022-07-01T15:47:17;30.60;63.00
22950;DHT22;11641;51.018;4.474;2022-07-01T15:50:01;30.10;64.80
22950;DHT22;11641;51.018;4.474;2022-07-01T15:52:27;29.40;65.70
22950;DHT22;11641;51.018;4.474;2022-07-01T15:54:53;28.50;67.00
22950;DHT22;11641;51.018;4.474;2022-07-01T15:57:19;27.70;68.90
22950;DHT22;11641;51.018;4.474;2022-07-01T15:59:44;26.90;73.10
22950;DHT22;11641;51.018;4.474;2022-07-01T16:02:11;26.40;74.00
22950;DHT22;11641;51.018;4.474;2022-07-01T16:04:40;26.60;76.20
22950;DHT22;11641;51.018;4.474;2022-07-01T16:07:14;28.80;71.40
22950;DHT22;11641;51.018;4.474;2022-07-01T16:09:45;32.00;62.60
22950;DHT22;11641;51.018;4.474;2022-07-01T16:12:13;32.70;59.50
22950;DHT22;11641;51.018;4.474;2022-07-01T16:14:42;32.00;59.60
22950;DHT22;11641;51.018;4.474;2022-07-01T16:17:11;31.30;60.60
22950;DHT22;11641;51.018;4.474;2022-07-01T16:19:41;31.90;60.50
22950;DHT22;11641;51.018;4.474;2022-07-01T16:22:09;31.90;59.50
22950;DHT22;11641;51.018;4.474;2022-07-01T16:24:35;30.70;59.90
22950;DHT22;11641;51.018;4.474;2022-07-01T16:27:02;30.30;61.00
22950;DHT22;11641;51.018;4.474;2022-07-01T16:29:29;30.50;62.30
22950;DHT22;11641;51.018;4.474;2022-07-01T16:31:59;32.60;58.70
22950;DHT22;11641;51.018;4.474;2022-07-01T16:34:27;32.70;54.80
22950;DHT22;11641;51.018;4.474;2022-07-01T16:36:55;30.90;55.90
22950;DHT22;11641;51.018;4.474;2022-07-01T16:39:22;30.20;58.40